createdAt,value
2023-04-20T00:02:04.428Z,7.36
2023-04-20T00:04:30.887Z,7.40
2023-04-20T00:06:58.626Z,7.40
2023-04-20T00:09:27.012Z,7.42
2023-04-20T00:11:53.347Z,7.45
2023-04-20T00:14:20.127Z,7.41
2023-04-20T00:16:46.651Z,7.41
2023-04-20T00:19:13.004Z,7.42
2023-04-20T00:21:39.393Z,7.37
2023-04-20T00:24:06.623Z,7.33
2023-04-20T00:26:34.340Z,7.34
2023-04-20T00:29:01.132Z,7.23
2023-04-20T00:31:27.620Z,7.22
2023-04-20T00:33:54.068Z,7.26
2023-04-20T00:36:20.562Z,7.22
2023-04-20T00:38:46.895Z,7.23
2023-04-20T00:41:13.615Z,7.17
2023-04-20T00:43:57.767Z,7.17
2023-04-20T00:46:24.710Z,7.23
2023-04-20T00:48:52.619Z,7.20
2023-04-20T00:51:21.141Z,7.16
2023-04-20T00:53:47.766Z,7.26
2023-04-20T00:56:15.099Z,7.24
2023-04-20T00:58:42.520Z,7.22
2023-04-20T01:01:10.598Z,7.18
2023-04-20T01:03:39.709Z,7.18
2023-04-20T01:06:07.288Z,7.21
2023-04-20T01:08:33.612Z,7.19
2023-04-20T01:11:03.480Z,7.24
2023-04-20T01:13:30.299Z,7.24
2023-04-20T01:16:00.299Z,7.30
2023-04-20T01:18:26.958Z,7.22
2023-04-20T01:20:53.309Z,7.13
2023-04-20T01:23:20.228Z,7.10
2023-04-20T01:25:46.681Z,7.14
2023-04-20T01:28:14.326Z,7.13
2023-04-20T01:30:40.767Z,7.14
2023-04-20T01:33:07.175Z,7.14
2023-04-20T01:35:33.600Z,7.24
2023-04-20T01:38:01.416Z,7.19
2023-04-20T01:40:27.776Z,7.16
2023-04-20T01:42:54.096Z,7.28
2023-04-20T01:45:22.275Z,7.28
2023-04-20T01:47:48.684Z,7.24
2023-04-20T01:50:15.121Z,7.24
2023-04-20T01:52:41.468Z,7.28
2023-04-20T01:55:11.511Z,7.32
2023-04-20T01:57:37.883Z,7.23
2023-04-20T02:00:04.867Z,7.22
2023-04-20T02:02:40.707Z,7.26
2023-04-20T02:05:07.869Z,7.26
2023-04-20T02:07:34.385Z,7.24
2023-04-20T02:10:00.706Z,7.21
2023-04-20T02:12:27.042Z,7.20
2023-04-20T02:14:53.417Z,7.21
2023-04-20T02:17:21.313Z,7.27
2023-04-20T02:19:47.854Z,7.22
2023-04-20T02:22:14.219Z,7.19
2023-04-20T02:24:41.357Z,7.27
2023-04-20T02:27:07.718Z,7.31
2023-04-20T02:29:34.121Z,7.30
2023-04-20T02:32:00.467Z,7.32
2023-04-20T02:34:27.003Z,7.28
2023-04-20T02:36:56.511Z,7.26
2023-04-20T02:39:22.856Z,7.26
2023-04-20T02:41:49.185Z,7.25
2023-04-20T02:44:16.412Z,7.22
2023-04-20T02:46:42.819Z,7.22
2023-04-20T02:49:09.380Z,7.24
2023-04-20T02:51:40.248Z,7.19
2023-04-20T02:54:06.626Z,7.20
2023-04-20T02:56:32.990Z,7.17
2023-04-20T02:59:04.496Z,7.18
2023-04-20T03:01:57.365Z,7.12
2023-04-20T03:04:26.350Z,7.17
2023-04-20T03:07:04.005Z,7.21
2023-04-20T03:09:33.615Z,7.20
2023-04-20T03:12:18.589Z,7.17
2023-04-20T03:15:17.085Z,7.22
2023-04-20T03:17:58.164Z,7.26
2023-04-20T03:20:24.913Z,7.23
2023-04-20T03:22:51.443Z,7.21
2023-04-20T03:25:20.272Z,7.28
2023-04-20T03:28:00.544Z,7.25
2023-04-20T03:30:27.071Z,7.24
2023-04-20T03:33:01.254Z,7.28
2023-04-20T03:35:28.082Z,7.33
2023-04-20T03:37:54.555Z,7.42
2023-04-20T03:40:21.463Z,7.40
2023-04-20T03:42:47.803Z,7.33
2023-04-20T03:45:14.262Z,7.33
2023-04-20T03:47:41.837Z,7.32
2023-04-20T03:50:08.639Z,7.33
2023-04-20T03:52:35.192Z,7.41
2023-04-20T03:55:05.157Z,7.42
2023-04-20T03:57:33.663Z,7.37
2023-04-20T04:00:01.537Z,7.37
2023-04-20T04:02:35.455Z,7.32
2023-04-20T04:05:03.440Z,7.39
2023-04-20T04:07:29.942Z,7.32
2023-04-20T04:09:56.453Z,7.34
2023-04-20T04:12:22.839Z,7.32
2023-04-20T04:14:50.124Z,7.35
2023-04-20T04:17:18.977Z,7.27
2023-04-20T04:19:45.568Z,7.26
2023-04-20T04:22:11.992Z,7.30
2023-04-20T04:24:48.695Z,7.26
2023-04-20T04:27:18.145Z,7.23
2023-04-20T04:29:52.700Z,7.26
2023-04-20T04:32:20.547Z,7.20
2023-04-20T04:34:48.158Z,7.21
2023-04-20T04:37:14.832Z,7.26
2023-04-20T04:39:47.338Z,7.18
2023-04-20T04:42:20.045Z,7.09
2023-04-20T04:44:47.087Z,7.08
2023-04-20T04:47:21.798Z,7.15
2023-04-20T04:49:48.651Z,7.10
2023-04-20T04:52:15.077Z,7.05
2023-04-20T04:54:41.460Z,7.08
2023-04-20T04:57:07.785Z,7.02
2023-04-20T04:59:34.196Z,7.08
2023-04-20T05:02:00.777Z,7.09
2023-04-20T05:04:27.333Z,6.96
2023-04-20T05:06:53.679Z,7.07
2023-04-20T05:09:20.336Z,7.09
2023-04-20T05:11:46.894Z,7.01
2023-04-20T05:14:13.213Z,7.07
2023-04-20T05:16:39.626Z,7.03
2023-04-20T05:19:06.095Z,6.91
2023-04-20T05:21:32.801Z,6.82
2023-04-20T05:23:59.215Z,6.76
2023-04-20T05:26:25.675Z,6.72
2023-04-20T05:28:52.107Z,6.68
2023-04-20T05:31:18.557Z,6.67
2023-04-20T05:33:44.987Z,6.73
2023-04-20T05:36:11.445Z,6.72
2023-04-20T05:38:37.858Z,6.64
2023-04-20T05:41:04.733Z,6.71
2023-04-20T05:43:31.109Z,6.76
2023-04-20T05:45:57.588Z,6.80
2023-04-20T05:48:24.072Z,6.77
2023-04-20T05:50:50.470Z,6.76
2023-04-20T05:53:16.780Z,6.81
2023-04-20T05:55:43.130Z,6.79
2023-04-20T05:58:09.467Z,6.75
2023-04-20T06:00:36.123Z,6.73
2023-04-20T06:03:03.420Z,6.74
2023-04-20T06:05:30.193Z,6.81
2023-04-20T06:07:56.547Z,6.76
2023-04-20T06:10:22.971Z,6.73
2023-04-20T06:12:49.366Z,6.71
2023-04-20T06:15:16.390Z,6.60
2023-04-20T06:17:42.802Z,6.67
2023-04-20T06:20:11.526Z,6.58
2023-04-20T06:22:45.273Z,6.48
2023-04-20T06:25:12.342Z,6.39
2023-04-20T06:27:39.315Z,6.22
2023-04-20T06:30:06.498Z,6.12
2023-04-20T06:32:33.046Z,6.09
2023-04-20T06:34:59.690Z,6.01
2023-04-20T06:37:26.075Z,6.08
2023-04-20T06:39:55.291Z,6.13
2023-04-20T06:42:22.212Z,6.17
2023-04-20T06:44:49.528Z,6.14
2023-04-20T06:47:15.910Z,6.16
2023-04-20T06:49:43.287Z,6.09
2023-04-20T06:52:09.609Z,6.09
2023-04-20T06:54:35.959Z,6.19
2023-04-20T06:57:02.320Z,6.12
2023-04-20T06:59:28.677Z,6.11
2023-04-20T07:01:55.050Z,6.06
2023-04-20T07:04:21.434Z,6.11
2023-04-20T07:06:49.705Z,6.21
2023-04-20T07:09:19.256Z,6.23
2023-04-20T07:11:45.864Z,6.25
2023-04-20T07:14:12.185Z,6.27
2023-04-20T07:16:38.836Z,6.39
2023-04-20T07:19:05.493Z,6.49
2023-04-20T07:21:32.178Z,6.53
2023-04-20T07:23:59.009Z,6.62
2023-04-20T07:26:25.711Z,6.74
2023-04-20T07:28:52.176Z,6.82
2023-04-20T07:31:18.641Z,6.89
2023-04-20T07:33:45.033Z,6.91
2023-04-20T07:36:11.445Z,6.86
2023-04-20T07:38:37.810Z,6.90
2023-04-20T07:41:04.158Z,6.91
2023-04-20T07:43:30.537Z,6.92
2023-04-20T07:45:56.930Z,6.81
2023-04-20T07:48:23.358Z,6.95
2023-04-20T07:50:49.690Z,6.93
2023-04-20T07:53:16.149Z,7.00
2023-04-20T07:55:42.479Z,6.97
2023-04-20T07:58:08.883Z,7.05
2023-04-20T08:00:35.355Z,7.16
2023-04-20T08:03:01.915Z,7.22
2023-04-20T08:05:28.698Z,7.24
2023-04-20T08:07:55.234Z,7.34
2023-04-20T08:10:21.734Z,7.33
2023-04-20T08:12:51.136Z,7.24
2023-04-20T08:15:19.031Z,7.22
2023-04-20T08:17:45.521Z,7.17
2023-04-20T08:20:12.282Z,7.32
2023-04-20T08:22:39.564Z,7.19
2023-04-20T08:25:06.129Z,7.14
2023-04-20T08:27:32.463Z,7.23
2023-04-20T08:29:58.875Z,7.25
2023-04-20T08:32:26.534Z,7.38
2023-04-20T08:34:53.979Z,7.18
2023-04-20T08:37:20.320Z,7.18
2023-04-20T08:39:46.766Z,7.25
2023-04-20T08:42:13.367Z,7.29
2023-04-20T08:44:39.840Z,7.18
2023-04-20T08:47:06.293Z,7.28
2023-04-20T08:49:32.918Z,7.32
2023-04-20T08:51:59.309Z,7.26
2023-04-20T08:54:25.952Z,7.24
2023-04-20T08:56:52.398Z,7.23
2023-04-20T08:59:18.750Z,7.23
2023-04-20T09:01:45.361Z,7.14
2023-04-20T09:04:17.089Z,7.18
2023-04-20T09:06:50.270Z,7.28
2023-04-20T09:09:17.268Z,7.25
2023-04-20T09:11:44.654Z,7.29
2023-04-20T09:14:13.698Z,7.06
2023-04-20T09:16:56.776Z,6.91
2023-04-20T09:19:24.536Z,6.82
2023-04-20T09:21:53.150Z,6.74
2023-04-20T09:24:20.981Z,6.56
2023-04-20T09:26:47.362Z,6.58
2023-04-20T09:29:22.146Z,6.54
2023-04-20T09:31:49.744Z,6.63
2023-04-20T09:34:16.649Z,6.84
2023-04-20T09:36:46.576Z,7.03
2023-04-20T09:39:17.742Z,7.15
2023-04-20T09:41:44.840Z,7.16
2023-04-20T09:44:12.429Z,7.23
2023-04-20T09:46:40.552Z,7.28
2023-04-20T09:49:09.636Z,7.42
2023-04-20T09:51:38.254Z,7.54
2023-04-20T09:54:06.121Z,7.64
2023-04-20T09:56:34.398Z,7.75
2023-04-20T09:59:02.021Z,7.80
2023-04-20T10:01:34.590Z,7.95
2023-04-20T10:04:03.500Z,7.98
2023-04-20T10:06:32.499Z,8.29
2023-04-20T10:09:02.052Z,8.36
2023-04-20T10:11:37.478Z,8.44
2023-04-20T10:14:24.846Z,8.17
2023-04-20T10:17:03.349Z,8.06
2023-04-20T10:19:44.202Z,8.21
2023-04-20T10:22:12.994Z,8.26
2023-04-20T10:24:40.057Z,8.22
2023-04-20T10:27:20.577Z,8.26
2023-04-20T10:29:47.297Z,8.27
2023-04-20T10:32:28.281Z,8.28
2023-04-20T10:35:06.679Z,8.42
2023-04-20T10:37:33.936Z,8.58
2023-04-20T10:40:01.107Z,8.51
2023-04-20T10:42:29.374Z,8.65
2023-04-20T10:44:55.785Z,8.68
2023-04-20T10:47:30.138Z,8.57
2023-04-20T10:50:13.936Z,8.43
2023-04-20T10:52:42.125Z,8.72
2023-04-20T10:55:22.965Z,8.80
2023-04-20T10:57:50.705Z,8.84
2023-04-20T11:00:22.362Z,8.78
2023-04-20T11:02:59.414Z,8.87
2023-04-20T11:05:27.540Z,8.72
2023-04-20T11:07:55.594Z,8.76
2023-04-20T11:10:25.010Z,8.87
2023-04-20T11:12:51.894Z,8.90
2023-04-20T11:15:18.456Z,8.91
2023-04-20T11:17:46.639Z,8.91
2023-04-20T11:20:16.805Z,8.91
2023-04-20T11:22:44.339Z,9.08
2023-04-20T11:25:12.309Z,9.09
2023-04-20T11:27:39.508Z,9.44
2023-04-20T11:30:09.778Z,9.77
2023-04-20T11:32:36.577Z,9.86
2023-04-20T11:35:07.816Z,9.74
2023-04-20T11:37:54.661Z,9.82
2023-04-20T11:40:21.183Z,10.04
2023-04-20T11:42:47.525Z,10.06
2023-04-20T11:45:13.878Z,10.16
2023-04-20T11:47:40.863Z,10.11
2023-04-20T11:50:08.604Z,10.05
2023-04-20T11:52:35.126Z,10.14
2023-04-20T11:55:01.643Z,10.31
2023-04-20T11:57:27.973Z,10.74
2023-04-20T11:59:54.344Z,10.52
2023-04-20T12:02:20.823Z,10.68
2023-04-20T12:04:47.777Z,10.82
2023-04-20T12:07:14.353Z,10.76
2023-04-20T12:09:41.129Z,10.68
2023-04-20T12:12:08.688Z,10.31
2023-04-20T12:14:35.150Z,10.19
2023-04-20T12:17:02.388Z,10.14
2023-04-20T12:19:28.747Z,10.15
2023-04-20T12:21:55.560Z,10.33
2023-04-20T12:24:22.808Z,10.68
2023-04-20T12:26:49.209Z,10.89
2023-04-20T12:29:16.481Z,10.85
2023-04-20T12:31:43.114Z,10.88
2023-04-20T12:34:09.532Z,10.80
2023-04-20T12:36:36.467Z,10.78
2023-04-20T12:39:03.942Z,10.91
2023-04-20T12:41:30.534Z,10.74
2023-04-20T12:43:56.846Z,10.59
2023-04-20T12:46:23.264Z,10.87
2023-04-20T12:48:49.662Z,11.17
2023-04-20T12:51:16.154Z,11.16
2023-04-20T12:53:42.560Z,11.26
2023-04-20T12:56:08.912Z,11.32
2023-04-20T12:58:35.254Z,11.25
2023-04-20T13:01:01.731Z,11.13
2023-04-20T13:03:28.341Z,11.04
2023-04-20T13:05:54.816Z,11.22
2023-04-20T13:08:21.597Z,10.97
2023-04-20T13:10:48.181Z,10.84
2023-04-20T13:13:14.600Z,10.98
2023-04-20T13:15:41.225Z,11.29
2023-04-20T13:18:09.471Z,11.44
2023-04-20T13:20:36.071Z,11.53
2023-04-20T13:23:03.867Z,11.67
2023-04-20T13:25:33.260Z,11.44
2023-04-20T13:28:01.361Z,11.23
2023-04-20T13:30:27.755Z,11.22
2023-04-20T13:32:54.179Z,11.23
2023-04-20T13:35:20.614Z,11.33
2023-04-20T13:37:47.440Z,11.16
2023-04-20T13:40:14.225Z,11.10
2023-04-20T13:42:40.762Z,11.37
2023-04-20T13:45:07.797Z,11.42
2023-04-20T13:47:34.447Z,11.57
2023-04-20T13:50:02.295Z,11.70
2023-04-20T13:52:28.946Z,11.37
2023-04-20T13:54:55.304Z,11.20
2023-04-20T13:57:21.647Z,11.06
2023-04-20T13:59:48.012Z,11.19
2023-04-20T14:02:14.439Z,11.03
2023-04-20T14:04:40.939Z,11.28
2023-04-20T14:07:07.325Z,11.34
2023-04-20T14:09:33.709Z,11.25
2023-04-20T14:12:01.376Z,11.46
2023-04-20T14:14:27.731Z,11.66
2023-04-20T14:16:54.075Z,11.60
2023-04-20T14:19:20.410Z,11.85
2023-04-20T14:21:47.272Z,11.72
2023-04-20T14:24:14.287Z,11.69
2023-04-20T14:26:41.209Z,11.82
2023-04-20T14:29:07.654Z,11.75
2023-04-20T14:31:34.773Z,11.73
2023-04-20T14:34:01.321Z,11.69
2023-04-20T14:36:28.019Z,11.40
2023-04-20T14:38:55.403Z,11.34
2023-04-20T14:41:22.076Z,11.36
2023-04-20T14:43:48.401Z,11.49
2023-04-20T14:46:14.751Z,11.44
2023-04-20T14:48:41.206Z,11.67
2023-04-20T14:51:07.582Z,11.57
2023-04-20T14:53:33.904Z,11.52
2023-04-20T14:56:00.253Z,11.40
2023-04-20T14:58:26.580Z,11.45
2023-04-20T15:00:54.177Z,11.59
2023-04-20T15:03:20.920Z,11.81
2023-04-20T15:05:47.597Z,12.20
2023-04-20T15:08:14.526Z,12.16
2023-04-20T15:10:41.085Z,12.00
2023-04-20T15:13:07.606Z,12.06
2023-04-20T15:15:47.462Z,12.04
2023-04-20T15:18:15.813Z,12.30
2023-04-20T15:20:42.130Z,12.48
2023-04-20T15:23:08.752Z,12.45
2023-04-20T15:25:35.084Z,12.24
2023-04-20T15:28:01.567Z,12.05
2023-04-20T15:30:29.313Z,11.93
2023-04-20T15:32:55.754Z,11.91
2023-04-20T15:35:31.203Z,11.91
2023-04-20T15:37:57.961Z,11.89
2023-04-20T15:40:24.353Z,11.89
2023-04-20T15:42:51.430Z,11.81
2023-04-20T15:45:17.795Z,11.94
2023-04-20T15:47:44.380Z,12.14
2023-04-20T15:50:11.251Z,12.28
2023-04-20T15:52:37.657Z,12.11
2023-04-20T15:55:04.411Z,11.99
2023-04-20T15:57:31.297Z,11.83
2023-04-20T15:59:57.799Z,11.82
2023-04-20T16:02:24.364Z,11.58
2023-04-20T16:04:51.231Z,11.45
2023-04-20T16:07:17.666Z,11.42
2023-04-20T16:09:44.124Z,11.43
2023-04-20T16:12:10.556Z,11.44
2023-04-20T16:14:36.910Z,11.48
2023-04-20T16:17:03.298Z,11.65
2023-04-20T16:19:30.259Z,11.88
2023-04-20T16:21:56.605Z,12.05
2023-04-20T16:24:23.023Z,11.96
2023-04-20T16:26:49.374Z,11.70
2023-04-20T16:29:16.046Z,11.47
2023-04-20T16:31:42.505Z,11.46
2023-04-20T16:34:08.957Z,11.44
2023-04-20T16:36:35.282Z,11.56
2023-04-20T16:39:05.676Z,11.65
2023-04-20T16:41:32.325Z,11.60
2023-04-20T16:43:58.669Z,11.74
2023-04-20T16:46:25.113Z,11.77
2023-04-20T16:48:51.870Z,11.68
2023-04-20T16:51:18.222Z,11.48
2023-04-20T16:53:45.230Z,11.33
2023-04-20T16:56:12.162Z,11.23
2023-04-20T16:58:38.605Z,11.09
2023-04-20T17:01:06.882Z,10.97
2023-04-20T17:03:33.370Z,11.01
2023-04-20T17:06:06.993Z,10.89
2023-04-20T17:08:33.840Z,10.86
2023-04-20T17:11:01.688Z,10.75
2023-04-20T17:13:28.014Z,10.75
2023-04-20T17:15:54.357Z,10.78
2023-04-20T17:18:20.737Z,10.64
2023-04-20T17:20:47.815Z,10.69
2023-04-20T17:23:19.886Z,10.52
2023-04-20T17:25:47.292Z,10.26
2023-04-20T17:28:14.068Z,10.07
2023-04-20T17:30:41.356Z,9.74
2023-04-20T17:33:12.191Z,9.58
2023-04-20T17:35:39.283Z,9.39
2023-04-20T17:38:05.827Z,9.41
2023-04-20T17:40:32.367Z,9.43
2023-04-20T17:42:58.708Z,9.37
2023-04-20T17:45:25.166Z,9.25
2023-04-20T17:47:53.468Z,9.26
2023-04-20T17:50:20.429Z,9.16
2023-04-20T17:52:46.796Z,9.09
2023-04-20T17:55:13.234Z,9.04
2023-04-20T17:57:40.009Z,9.01
2023-04-20T18:00:08.490Z,8.89
2023-04-20T18:02:41.272Z,8.90
2023-04-20T18:05:08.286Z,8.81
2023-04-20T18:07:34.722Z,8.77
2023-04-20T18:10:01.305Z,8.77
2023-04-20T18:12:27.654Z,8.77
2023-04-20T18:14:54.001Z,8.76
2023-04-20T18:17:20.371Z,8.73
2023-04-20T18:19:46.789Z,8.65
2023-04-20T18:22:13.113Z,8.72
2023-04-20T18:24:39.454Z,8.72
2023-04-20T18:27:05.883Z,8.75
2023-04-20T18:29:32.275Z,8.71
2023-04-20T18:32:01.707Z,8.67
2023-04-20T18:34:30.914Z,8.80
2023-04-20T18:36:58.404Z,8.73
2023-04-20T18:39:26.146Z,8.62
2023-04-20T18:41:52.487Z,8.61
2023-04-20T18:44:19.183Z,8.63
2023-04-20T18:46:46.335Z,8.58
2023-04-20T18:49:12.734Z,8.54
2023-04-20T18:51:39.118Z,8.51
2023-04-20T18:54:05.583Z,8.52
2023-04-20T18:56:31.996Z,8.48
2023-04-20T18:58:59.363Z,8.48
2023-04-20T19:01:26.011Z,8.43
2023-04-20T19:03:52.696Z,8.44
2023-04-20T19:06:19.222Z,8.39
2023-04-20T19:08:45.562Z,8.40
2023-04-20T19:11:11.891Z,8.43
2023-04-20T19:13:44.039Z,8.37
2023-04-20T19:16:11.507Z,8.35
2023-04-20T19:18:38.633Z,8.36
2023-04-20T19:21:05.343Z,8.35
2023-04-20T19:23:31.723Z,8.27
2023-04-20T19:25:58.102Z,8.27
2023-04-20T19:28:24.516Z,8.23
2023-04-20T19:30:50.951Z,8.21
2023-04-20T19:33:17.377Z,8.21
2023-04-20T19:35:48.078Z,8.24
2023-04-20T19:38:14.396Z,8.24
2023-04-20T19:40:40.738Z,8.20
2023-04-20T19:43:07.140Z,8.19
2023-04-20T19:45:33.553Z,8.18
2023-04-20T19:47:59.980Z,8.19
2023-04-20T19:50:26.618Z,8.24
2023-04-20T19:52:53.246Z,8.19
2023-04-20T19:55:19.685Z,8.15
2023-04-20T19:57:46.033Z,8.03
2023-04-20T20:00:13.249Z,8.13
2023-04-20T20:02:40.517Z,8.03
2023-04-20T20:05:07.500Z,8.08
2023-04-20T20:07:34.600Z,8.11
2023-04-20T20:10:01.339Z,8.13
2023-04-20T20:12:27.697Z,8.13
2023-04-20T20:14:54.019Z,8.20
2023-04-20T20:17:20.390Z,8.20
2023-04-20T20:19:46.806Z,8.11
2023-04-20T20:22:13.260Z,8.14
2023-04-20T20:24:39.663Z,8.11
2023-04-20T20:27:06.042Z,8.09
2023-04-20T20:29:32.552Z,8.10
2023-04-20T20:31:58.992Z,8.03
2023-04-20T20:34:25.582Z,8.10
2023-04-20T20:36:53.112Z,8.01
2023-04-20T20:39:19.672Z,8.10
2023-04-20T20:41:46.432Z,8.09
2023-04-20T20:44:12.921Z,8.03
2023-04-20T20:46:39.564Z,8.09
2023-04-20T20:49:06.019Z,8.01
2023-04-20T20:51:32.941Z,8.07
2023-04-20T20:53:59.311Z,8.04
2023-04-20T20:56:26.150Z,8.05
2023-04-20T20:58:53.950Z,8.04
2023-04-20T21:01:20.780Z,8.00
2023-04-20T21:03:49.800Z,7.93
2023-04-20T21:06:16.926Z,7.92
2023-04-20T21:08:43.428Z,7.91
2023-04-20T21:11:09.808Z,7.89
2023-04-20T21:13:36.300Z,7.99
2023-04-20T21:16:03.110Z,7.95
2023-04-20T21:18:29.488Z,7.94
2023-04-20T21:20:55.822Z,7.98
2023-04-20T21:23:22.167Z,7.98
2023-04-20T21:25:48.479Z,7.98
2023-04-20T21:28:14.800Z,8.02
2023-04-20T21:30:41.137Z,8.10
2023-04-20T21:33:08.140Z,8.05
2023-04-20T21:35:34.804Z,8.13
2023-04-20T21:38:01.199Z,8.12
2023-04-20T21:40:27.675Z,8.14
2023-04-20T21:42:54.053Z,8.17
2023-04-20T21:45:20.558Z,8.15
2023-04-20T21:47:46.917Z,8.14
2023-04-20T21:50:13.457Z,8.10
2023-04-20T21:52:39.846Z,8.15
2023-04-20T21:55:06.953Z,8.10
2023-04-20T21:57:33.308Z,8.10
2023-04-20T21:59:59.673Z,8.08
2023-04-20T22:02:26.203Z,8.04
2023-04-20T22:04:52.905Z,8.09
2023-04-20T22:07:19.496Z,8.02
2023-04-20T22:09:45.866Z,8.04
2023-04-20T22:12:12.218Z,8.00
2023-04-20T22:14:38.579Z,8.05
2023-04-20T22:17:04.956Z,8.09
2023-04-20T22:19:31.366Z,8.09
2023-04-20T22:21:57.724Z,8.07
2023-04-20T22:24:24.120Z,8.12
2023-04-20T22:26:50.495Z,8.07
2023-04-20T22:29:16.997Z,8.07
2023-04-20T22:31:43.608Z,8.09
2023-04-20T22:34:09.984Z,8.14
2023-04-20T22:36:36.313Z,8.12
2023-04-20T22:39:02.714Z,8.09
2023-04-20T22:41:29.055Z,8.12
2023-04-20T22:43:55.373Z,8.10
2023-04-20T22:46:21.888Z,8.14
2023-04-20T22:48:51.032Z,8.09
2023-04-20T22:51:17.466Z,8.08
2023-04-20T22:53:44.517Z,8.03
2023-04-20T22:56:10.898Z,8.10
2023-04-20T22:58:37.298Z,8.06
2023-04-20T23:01:03.728Z,8.04
2023-04-20T23:03:30.991Z,8.08
2023-04-20T23:05:58.934Z,8.05
2023-04-20T23:08:25.993Z,8.04
2023-04-20T23:10:55.481Z,8.07
2023-04-20T23:13:22.690Z,8.00
2023-04-20T23:15:49.658Z,8.04
2023-04-20T23:18:16.054Z,8.00
2023-04-20T23:20:42.418Z,7.94
2023-04-20T23:23:10.571Z,7.95
2023-04-20T23:25:37.454Z,7.99
2023-04-20T23:28:03.905Z,7.91
2023-04-20T23:30:30.284Z,7.86
2023-04-20T23:32:56.688Z,7.88
2023-04-20T23:35:23.157Z,7.83
2023-04-20T23:37:50.156Z,7.74
2023-04-20T23:40:16.692Z,7.63
2023-04-20T23:42:43.035Z,7.72
2023-04-20T23:45:09.828Z,7.67
2023-04-20T23:47:36.215Z,7.63
2023-04-20T23:50:02.631Z,7.58
2023-04-20T23:52:29.025Z,7.59
2023-04-20T23:54:55.410Z,7.56
2023-04-20T23:57:21.745Z,7.59
2023-04-20T23:59:48.134Z,7.53
